Time,TemperatureF,DewpointF,PressureIn,WindDirection,WindDirectionDegrees,WindSpeedMPH,WindSpeedGustMPH,Humidity,HourlyPrecipIn,Conditions,Clouds,dailyrainin,SoftwareType,DateUTC
2013-04-20 00:11:00,39.0,33.1,29.83,SW,225,5.3,-999.0,79,-99.99,,,0.00,Acu-Link.com,2013-04-20 04:11:00,
2013-04-20 00:26:00,39.2,33.2,29.84,WSW,247,3.2,-999.0,79,-99.99,,,0.00,Acu-Link.com,2013-04-20 04:26:00,
2013-04-20 00:41:00,39.0,33.1,29.84,SW,225,2.2,-999.0,79,-99.99,,,0.00,Acu-Link.com,2013-04-20 04:41:00,
2013-04-20 00:57:00,38.7,33.1,29.85,SSW,202,2.7,-999.0,80,-99.99,,,0.00,Acu-Link.com,2013-04-20 04:57:00,
2013-04-20 01:12:00,38.3,33.0,29.85,ESE,112,3.2,-999.0,81,-99.99,,,0.00,Acu-Link.com,2013-04-20 05:12:00,
2013-04-20 01:27:00,38.5,33.2,29.85,SW,225,3.2,-999.0,81,-99.99,,,0.00,Acu-Link.com,2013-04-20 05:27:00,
2013-04-20 01:42:00,38.5,32.9,29.85,SSW,202,3.2,-999.0,80,-99.99,,,0.00,Acu-Link.com,2013-04-20 05:42:00,
2013-04-20 01:58:00,38.5,32.9,29.85,SW,225,4.7,-999.0,80,-99.99,,,0.00,Acu-Link.com,2013-04-20 05:58:00,
2013-04-20 02:13:00,38.1,32.5,29.85,SSE,157,4.7,-999.0,80,-99.99,,,0.00,Acu-Link.com,2013-04-20 06:13:00,
2013-04-20 02:28:00,38.1,32.8,29.85,West,270,6.8,-999.0,81,-99.99,,,0.00,Acu-Link.com,2013-04-20 06:28:00,
2013-04-20 02:44:00,37.9,32.6,29.85,WNW,292,2.7,-999.0,81,-99.99,,,0.00,Acu-Link.com,2013-04-20 06:44:00,
2013-04-20 02:59:00,37.8,32.5,29.85,SW,225,2.7,-999.0,81,-99.99,,,0.00,Acu-Link.com,2013-04-20 06:59:00,
2013-04-20 03:14:00,37.6,32.6,29.85,West,270,4.2,-999.0,82,-99.99,,,0.00,Acu-Link.com,2013-04-20 07:14:00,
2013-04-20 03:29:00,37.2,32.5,29.85,West,270,3.2,-999.0,83,-99.99,,,0.00,Acu-Link.com,2013-04-20 07:29:00,
2013-04-20 03:44:00,37.0,32.6,29.86,WSW,247,4.7,-999.0,84,-99.99,,,0.00,Acu-Link.com,2013-04-20 07:44:00,
2013-04-20 04:00:00,36.9,32.5,29.86,WNW,292,3.2,-999.0,84,-99.99,,,0.00,Acu-Link.com,2013-04-20 08:00:00,
2013-04-20 04:15:00,37.0,32.6,29.86,SSW,202,3.7,-999.0,84,-99.99,,,0.00,Acu-Link.com,2013-04-20 08:15:00,
2013-04-20 04:30:00,36.9,32.5,29.87,West,270,2.2,-999.0,84,-99.99,,,0.00,Acu-Link.com,2013-04-20 08:30:00,
2013-04-20 04:45:00,36.3,32.2,29.87,SW,225,2.2,-999.0,85,-99.99,,,0.00,Acu-Link.com,2013-04-20 08:45:00,
2013-04-20 05:01:00,36.3,32.5,29.87,West,270,3.2,-999.0,86,-99.99,,,0.00,Acu-Link.com,2013-04-20 09:01:00,
2013-04-20 05:16:00,36.3,32.5,29.88,West,270,3.7,-999.0,86,-99.99,,,0.00,Acu-Link.com,2013-04-20 09:16:00,
2013-04-20 05:31:00,36.3,32.5,29.88,West,270,2.2,-999.0,86,-99.99,,,0.00,Acu-Link.com,2013-04-20 09:31:00,
2013-04-20 05:46:00,36.0,32.2,29.88,WSW,247,4.2,-999.0,86,-99.99,,,0.00,Acu-Link.com,2013-04-20 09:46:00,
2013-04-20 06:01:00,35.6,32.4,29.88,WSW,247,3.7,-999.0,88,-99.99,,,0.00,Acu-Link.com,2013-04-20 10:01:00,
2013-04-20 06:16:00,35.6,32.4,29.89,WSW,247,3.2,-999.0,88,-99.99,,,0.00,Acu-Link.com,2013-04-20 10:16:00,
2013-04-20 06:32:00,35.4,32.2,29.90,WSW,247,2.2,-999.0,88,-99.99,,,0.00,Acu-Link.com,2013-04-20 10:32:00,
2013-04-20 06:47:00,35.2,32.0,29.90,SW,225,2.2,-999.0,88,-99.99,,,0.00,Acu-Link.com,2013-04-20 10:47:00,
2013-04-20 07:02:00,35.8,32.3,29.91,SW,225,2.7,-999.0,87,-99.99,,,0.00,Acu-Link.com,2013-04-20 11:02:00,
2013-04-20 07:18:00,35.8,32.3,29.92,WSW,247,3.2,-999.0,87,-99.99,,,0.00,Acu-Link.com,2013-04-20 11:18:00,
2013-04-20 07:33:00,36.5,32.7,29.93,WSW,247,2.7,-999.0,86,-99.99,,,0.00,Acu-Link.com,2013-04-20 11:33:00,
2013-04-20 07:48:00,36.9,32.8,29.93,West,270,3.7,-999.0,85,-99.99,,,0.00,Acu-Link.com,2013-04-20 11:48:00,
2013-04-20 08:03:00,37.6,33.2,29.94,WSW,247,3.2,-999.0,84,-99.99,,,0.00,Acu-Link.com,2013-04-20 12:03:00,
2013-04-20 08:18:00,38.7,33.4,29.95,West,270,4.2,-999.0,81,-99.99,,,0.00,Acu-Link.com,2013-04-20 12:18:00,
2013-04-20 08:33:00,39.6,33.6,29.95,West,270,7.3,-999.0,79,-99.99,,,0.00,Acu-Link.com,2013-04-20 12:33:00,
2013-04-20 08:49:00,40.6,33.3,29.96,West,270,3.2,-999.0,75,-99.99,,,0.00,Acu-Link.com,2013-04-20 12:49:00,
2013-04-20 09:04:00,41.4,34.1,29.97,SW,225,2.7,-999.0,75,-99.99,,,0.00,Acu-Link.com,2013-04-20 13:04:00,
2013-04-20 09:19:00,41.9,33.9,29.97,West,270,4.2,-999.0,73,-99.99,,,0.00,Acu-Link.com,2013-04-20 13:19:00,
2013-04-20 09:34:00,42.3,34.3,29.98,WSW,247,6.3,-999.0,73,-99.99,,,0.00,Acu-Link.com,2013-04-20 13:34:00,
2013-04-20 09:49:00,42.8,34.1,29.98,ENE,67,3.7,-999.0,71,-99.99,,,0.00,Acu-Link.com,2013-04-20 13:49:00,
2013-04-20 10:05:00,44.1,35.0,29.98,West,270,4.2,-999.0,70,-99.99,,,0.00,Acu-Link.com,2013-04-20 14:05:00,
2013-04-20 10:20:00,45.0,35.1,29.99,SSW,202,5.8,-999.0,68,-99.99,,,0.00,Acu-Link.com,2013-04-20 14:20:00,
2013-04-20 10:35:00,45.9,34.4,29.99,West,270,6.3,-999.0,64,-99.99,,,0.00,Acu-Link.com,2013-04-20 14:35:00,
2013-04-20 10:50:00,46.9,33.8,30.00,WSW,247,2.2,-999.0,60,-99.99,,,0.00,Acu-Link.com,2013-04-20 14:50:00,
2013-04-20 11:05:00,47.5,32.6,30.01,WSW,247,6.3,-999.0,56,-99.99,,,0.00,Acu-Link.com,2013-04-20 15:05:00,
2013-04-20 11:20:00,47.8,33.3,30.01,SSW,202,3.2,-999.0,57,-99.99,,,0.00,Acu-Link.com,2013-04-20 15:20:00,
2013-04-20 11:36:00,47.8,32.9,30.01,West,270,4.7,-999.0,56,-99.99,,,0.00,Acu-Link.com,2013-04-20 15:36:00,
2013-04-20 11:51:00,49.6,33.2,30.02,West,270,9.9,-999.0,53,-99.99,,,0.00,Acu-Link.com,2013-04-20 15:51:00,
2013-04-20 12:06:00,50.7,34.7,30.02,WSW,247,5.3,-999.0,54,-99.99,,,0.00,Acu-Link.com,2013-04-20 16:06:00,
2013-04-20 12:21:00,49.3,31.9,30.02,SW,225,3.7,-999.0,51,-99.99,,,0.00,Acu-Link.com,2013-04-20 16:21:00,
2013-04-20 12:36:00,52.5,36.3,30.02,West,270,3.7,-999.0,54,-99.99,,,0.00,Acu-Link.com,2013-04-20 16:36:00,
2013-04-20 12:51:00,50.9,32.9,30.02,WSW,247,7.3,-999.0,50,-99.99,,,0.00,Acu-Link.com,2013-04-20 16:51:00,
2013-04-20 13:06:00,51.6,33.6,30.02,ENE,67,5.3,-999.0,50,-99.99,,,0.00,Acu-Link.com,2013-04-20 17:06:00,
2013-04-20 13:21:00,52.3,31.6,30.01,WNW,292,6.3,-999.0,45,-99.99,,,0.00,Acu-Link.com,2013-04-20 17:21:00,
2013-04-20 13:36:00,51.4,32.4,30.01,SSW,202,4.7,-999.0,48,-99.99,,,0.00,Acu-Link.com,2013-04-20 17:36:00,
2013-04-20 13:51:00,53.2,35.0,30.01,WSW,247,4.7,-999.0,50,-99.99,,,0.00,Acu-Link.com,2013-04-20 17:51:00,
2013-04-20 14:06:00,53.8,33.5,30.01,NE,45,4.7,-999.0,46,-99.99,,,0.00,Acu-Link.com,2013-04-20 18:06:00,
2013-04-20 14:22:00,53.2,32.4,30.01,West,270,6.3,-999.0,45,-99.99,,,0.00,Acu-Link.com,2013-04-20 18:22:00,
2013-04-20 14:37:00,54.1,33.2,30.01,NNW,337,2.7,-999.0,45,-99.99,,,0.00,Acu-Link.com,2013-04-20 18:37:00,
2013-04-20 14:52:00,54.0,35.3,30.02,NNE,22,2.2,-999.0,49,-99.99,,,0.00,Acu-Link.com,2013-04-20 18:52:00,
2013-04-20 15:07:00,53.8,29.4,30.02,West,270,4.7,-999.0,39,-99.99,,,0.00,Acu-Link.com,2013-04-20 19:07:00,
2013-04-20 15:23:00,54.1,29.1,30.02,West,270,6.3,-999.0,38,-99.99,,,0.00,Acu-Link.com,2013-04-20 19:23:00,
2013-04-20 15:38:00,54.7,30.2,30.02,SSW,202,4.2,-999.0,39,-99.99,,,0.00,Acu-Link.com,2013-04-20 19:38:00,
2013-04-20 15:53:00,53.8,30.1,30.02,WSW,247,4.2,-999.0,40,-99.99,,,0.00,Acu-Link.com,2013-04-20 19:53:00,
2013-04-20 16:08:00,55.6,31.0,30.01,SE,135,3.2,-999.0,39,-99.99,,,0.00,Acu-Link.com,2013-04-20 20:08:00,
2013-04-20 16:23:00,55.2,30.0,30.01,West,270,5.3,-999.0,38,-99.99,,,0.00,Acu-Link.com,2013-04-20 20:23:00,
2013-04-20 16:39:00,55.4,29.6,30.02,West,270,2.7,-999.0,37,-99.99,,,0.00,Acu-Link.com,2013-04-20 20:39:00,
2013-04-20 16:54:00,55.6,30.4,30.02,West,270,4.2,-999.0,38,-99.99,,,0.00,Acu-Link.com,2013-04-20 20:54:00,
2013-04-20 17:09:00,55.2,29.4,30.02,West,270,3.7,-999.0,37,-99.99,,,0.00,Acu-Link.com,2013-04-20 21:09:00,
2013-04-20 17:25:00,55.0,27.9,30.02,West,270,7.3,-999.0,35,-99.99,,,0.00,Acu-Link.com,2013-04-20 21:25:00,
2013-04-20 17:40:00,57.4,30.7,30.02,ESE,112,2.2,-999.0,36,-99.99,,,0.00,Acu-Link.com,2013-04-20 21:40:00,
2013-04-20 17:55:00,56.1,28.1,30.03,North,0,3.2,-999.0,34,-99.99,,,0.00,Acu-Link.com,2013-04-20 21:55:00,
2013-04-20 18:10:00,55.0,27.9,30.03,ENE,67,2.7,-999.0,35,-99.99,,,0.00,Acu-Link.com,2013-04-20 22:10:00,
2013-04-20 18:26:00,55.4,28.9,30.03,North,0,2.7,-999.0,36,-99.99,,,0.00,Acu-Link.com,2013-04-20 22:26:00,
2013-04-20 18:41:00,55.2,28.7,30.04,WNW,292,3.7,-999.0,36,-99.99,,,0.00,Acu-Link.com,2013-04-20 22:41:00,
2013-04-20 18:56:00,55.0,28.5,30.03,ENE,67,2.7,-999.0,36,-99.99,,,0.00,Acu-Link.com,2013-04-20 22:56:00,
2013-04-20 19:12:00,54.3,29.2,30.03,NE,45,1.1,-999.0,38,-99.99,,,0.00,Acu-Link.com,2013-04-20 23:12:00,
2013-04-20 19:27:00,53.6,28.6,30.04,SW,225,2.2,-999.0,38,-99.99,,,0.00,Acu-Link.com,2013-04-20 23:27:00,
2013-04-20 19:42:00,53.4,27.8,30.04,West,270,0.0,-999.0,37,-99.99,,,0.00,Acu-Link.com,2013-04-20 23:42:00,
2013-04-20 19:58:00,52.3,28.1,30.04,WNW,292,1.7,-999.0,39,-99.99,,,0.00,Acu-Link.com,2013-04-20 23:58:00,
2013-04-20 20:13:00,50.2,28.0,30.05,NNE,22,1.7,-999.0,42,-99.99,,,0.00,Acu-Link.com,2013-04-21 00:13:00,
2013-04-20 20:28:00,48.9,28.5,30.05,NE,45,0.0,-999.0,45,-99.99,,,0.00,Acu-Link.com,2013-04-21 00:28:00,
2013-04-20 20:44:00,47.7,27.9,30.06,NNE,22,0.0,-999.0,46,-99.99,,,0.00,Acu-Link.com,2013-04-21 00:44:00,
2013-04-20 20:59:00,46.2,29.6,30.07,NE,45,2.2,-999.0,52,-99.99,,,0.00,Acu-Link.com,2013-04-21 00:59:00,
2013-04-20 21:14:00,45.5,29.4,30.08,ENE,67,0.0,-999.0,53,-99.99,,,0.00,Acu-Link.com,2013-04-21 01:14:00,
2013-04-20 21:29:00,44.6,29.4,30.08,NE,45,0.0,-999.0,55,-99.99,,,0.00,Acu-Link.com,2013-04-21 01:29:00,
2013-04-20 21:45:00,43.7,29.5,30.09,East,90,0.0,-999.0,57,-99.99,,,0.00,Acu-Link.com,2013-04-21 01:45:00,
2013-04-20 22:00:00,43.0,28.8,30.10,East,90,0.0,-999.0,57,-99.99,,,0.00,Acu-Link.com,2013-04-21 02:00:00,
2013-04-20 22:15:00,44.4,28.8,30.11,ESE,112,4.7,-999.0,54,-99.99,,,0.00,Acu-Link.com,2013-04-21 02:15:00,
2013-04-20 22:31:00,43.3,29.5,30.11,ESE,112,2.7,-999.0,58,-99.99,,,0.00,Acu-Link.com,2013-04-21 02:31:00,
2013-04-20 22:46:00,42.4,29.9,30.12,ENE,67,2.2,-999.0,61,-99.99,,,0.00,Acu-Link.com,2013-04-21 02:46:00,
2013-04-20 23:01:00,42.1,30.0,30.12,NNE,22,2.7,-999.0,62,-99.99,,,0.00,Acu-Link.com,2013-04-21 03:01:00,
2013-04-20 23:16:00,41.4,30.1,30.12,ENE,67,2.7,-999.0,64,-99.99,,,0.00,Acu-Link.com,2013-04-21 03:16:00,
2013-04-20 23:32:00,41.0,29.4,30.13,NNE,22,3.2,-999.0,63,-99.99,,,0.00,Acu-Link.com,2013-04-21 03:32:00,
2013-04-20 23:47:00,40.6,29.4,30.13,NE,45,2.7,-999.0,64,-99.99,,,0.00,Acu-Link.com,2013-04-21 03:47:00,